Time;durP1;ratioP1;P1;durP2;ratioP2;P2;SDS_P1;SDS_P2;PMS_P1;PMS_P2;Temp;Humidity;BMP_temperature;BMP_pressure;BME280_temperature;BME280_humidity;BME280_pressure;Samples;Min_cycle;Max_cycle;Signal;HPM_P1;HPM_P2
2023/11/06 00:00:57;;;;;;;1.40;0.80;;;10.80;21.20;;;10.99;99.15;98414.34;4736313;30;20442;-70
2023/11/06 00:03:26;;;;;;;15.07;1.47;;;10.80;1.00;;;10.98;99.02;98422.75;4750368;30;20508;-71
2023/11/06 00:05:55;;;;;;;1.07;0.80;;;10.80;1.00;;;11.01;99.17;98427.63;4736322;30;20463;-71
2023/11/06 00:08:25;;;;;;;1.77;0.80;;;10.90;9.90;;;11.01;97.96;98428.44;4736571;30;20450;-71
2023/11/06 00:10:56;;;;;;;1.30;1.00;;;10.90;1.00;;;11.10;95.68;98431.47;4736422;30;21008;-73
2023/11/06 00:13:26;;;;;;;2.13;1.13;;;10.90;1.00;;;11.10;96.44;98455.81;4736100;30;20988;-70
2023/11/06 00:15:54;;;;;;;0.90;0.60;;;10.90;1.00;;;11.07;97.29;98451.75;4736465;30;20975;-71
2023/11/06 00:18:23;;;;;;;1.70;0.93;;;10.90;99.90;;;11.03;96.31;98447.13;4735882;30;20438;-73
2023/11/06 00:20:52;;;;;;;1.00;0.90;;;10.90;1.00;;;11.01;98.28;98470.94;4736300;30;20449;-69
2023/11/06 00:23:21;;;;;;;1.00;0.80;;;10.90;1.00;;;10.99;96.78;98462.28;4735020;30;20510;-70
2023/11/06 00:25:50;;;;;;;1.20;0.70;;;10.90;99.90;;;11.07;97.18;98478.00;4735744;30;20446;-71
2023/11/06 00:28:20;;;;;;;1.90;0.77;;;10.90;99.90;;;11.02;97.40;98486.09;4735562;30;20432;-70
2023/11/06 00:30:49;;;;;;;1.20;0.80;;;10.90;99.90;;;11.01;95.87;98489.88;4736182;30;20413;-71
2023/11/06 00:33:18;;;;;;;2.50;0.97;;;10.90;99.90;;;11.04;94.52;98479.31;4738786;30;20445;-71
2023/11/06 00:35:47;;;;;;;1.20;1.00;;;10.90;99.90;;;11.03;94.48;98498.56;4740642;30;20455;-71
2023/11/06 00:38:19;;;;;;;3.97;1.20;;;10.80;26.70;;;11.06;94.79;98498.84;4740321;30;20536;-69
2023/11/06 00:40:48;;;;;;;1.60;0.80;;;10.90;84.80;;;11.00;94.30;98497.16;4739457;30;20601;-70
2023/11/06 00:43:19;;;;;;;1.60;0.60;;;10.80;1.00;;;10.94;94.46;98505.53;4748826;30;20465;-70
2023/11/06 00:45:48;;;;;;;1.10;1.00;;;10.80;99.90;;;11.01;93.74;98506.94;4729865;30;20467;-70
2023/11/06 00:48:17;;;;;;;2.00;0.90;;;10.90;44.20;;;11.02;94.26;98510.44;4732344;30;20443;-70
2023/11/06 00:50:46;;;;;;;1.87;0.90;;;10.90;1.00;;;11.06;94.02;98516.97;4734631;30;20966;-71
2023/11/06 00:53:14;;;;;;;1.23;0.83;;;10.90;99.90;;;10.99;94.27;98527.22;4748552;30;20841;-70
2023/11/06 00:55:43;;;;;;;1.33;1.03;;;10.90;64.80;;;10.98;94.53;98539.13;4735105;30;20435;-70
2023/11/06 00:58:16;;;;;;;3.83;1.00;;;10.90;99.90;;;10.99;95.11;98529.94;4733493;30;20494;-67
2023/11/06 01:00:46;;;;;;;8.43;1.37;;;10.80;99.90;;;11.07;93.61;98538.34;4730211;30;20825;-72
2023/11/06 01:03:15;;;;;;;1.57;0.80;;;10.90;99.90;;;11.00;93.37;98536.94;4748074;30;20481;-71
2023/11/06 01:05:44;;;;;;;2.80;1.13;;;10.90;1.00;;;11.03;94.03;98558.91;4733826;30;20450;-69
2023/11/06 01:08:13;;;;;;;1.30;0.80;;;10.90;99.50;;;10.96;93.88;98552.06;4735015;30;20921;-69
2023/11/06 01:10:41;;;;;;;2.17;1.87;;;10.80;25.30;;;10.91;94.74;98574.50;4735512;30;20442;-70
2023/11/06 01:13:13;;;;;;;1.63;0.83;;;10.80;1.00;;;10.93;95.03;98555.31;4734216;30;20492;-69
2023/11/06 01:15:42;;;;;;;2.60;0.70;;;10.80;99.90;;;10.97;94.40;98580.78;4748361;30;20545;-70
2023/11/06 01:18:11;;;;;;;0.90;0.80;;;10.80;1.00;;;10.92;94.54;98583.44;4734559;30;20456;-69
2023/11/06 01:20:40;;;;;;;2.93;1.33;;;10.80;1.00;;;10.90;95.20;98575.56;4728830;30;20542;-71
2023/11/06 01:23:09;;;;;;;3.40;0.93;;;10.80;19.50;;;10.90;97.08;98594.50;4748188;30;20478;-70
2023/11/06 01:25:42;;;;;;;1.53;0.80;;;10.70;99.90;;;10.94;96.13;98586.72;4730252;30;20501;-69
2023/11/06 01:28:11;;;;;;;0.90;0.70;;;10.80;1.00;;;10.94;94.39;98592.13;4734221;30;20458;-69
2023/11/06 01:30:40;;;;;;;1.47;1.00;;;10.80;1.00;;;10.94;94.80;98590.22;4730854;30;20413;-71
2023/11/06 01:33:09;;;;;;;1.67;0.73;;;10.80;1.00;;;10.92;94.54;98610.50;4734334;30;20441;-70
2023/11/06 01:35:39;;;;;;;1.00;0.77;;;10.80;1.00;;;10.94;94.23;98602.94;4734167;30;20516;-69
2023/11/06 01:38:08;;;;;;;1.17;0.97;;;10.80;1.00;;;10.92;94.46;98615.91;4747572;30;20930;-70
2023/11/06 01:40:37;;;;;;;7.03;1.07;;;10.80;1.00;;;10.92;94.60;98619.44;4745214;30;20484;-72
2023/11/06 01:43:06;;;;;;;1.07;0.80;;;10.80;1.00;;;10.94;94.33;98622.69;4733456;30;20955;-70
2023/11/06 01:45:39;;;;;;;2.50;1.37;;;10.80;99.90;;;10.91;93.07;98617.78;4734706;30;20448;-70
2023/11/06 01:48:08;;;;;;;4.00;1.03;;;10.80;1.00;;;10.96;93.11;98633.25;4734737;30;20458;-70
2023/11/06 01:50:40;;;;;;;1.03;0.93;;;10.80;1.00;;;11.01;93.28;98638.69;4734113;30;20455;-70
2023/11/06 01:53:12;;;;;;;1.40;0.93;;;10.80;1.00;;;11.04;91.80;98641.69;4734355;30;20458;-71
2023/11/06 01:55:43;;;;;;;4.97;1.00;;;10.90;99.90;;;11.05;92.02;98639.81;4733312;30;20429;-70
2023/11/06 01:58:14;;;;;;;1.10;0.80;;;10.90;99.90;;;11.07;92.41;98649.31;4732888;30;20481;-67
2023/11/06 02:00:47;;;;;;;1.07;0.90;;;10.90;1.00;;;11.02;91.40;98659.28;4745512;30;20508;-68
2023/11/06 02:03:18;;;;;;;1.00;0.60;;;10.90;99.90;;;11.03;90.30;98661.75;4732570;30;20474;-70
2023/11/06 02:05:49;;;;;;;1.30;1.20;;;10.90;99.90;;;11.08;90.26;98658.25;4734427;30;20508;-71
2023/11/06 02:08:18;;;;;;;1.47;1.00;;;10.90;99.90;;;11.10;89.81;98667.72;4747483;30;20458;-70
2023/11/06 02:10:47;;;;;;;1.20;0.97;;;10.90;64.40;;;11.05;90.29;98670.41;4734427;30;20446;-71
2023/11/06 02:13:17;;;;;;;2.27;1.67;;;10.90;99.90;;;11.10;90.34;98672.31;4747461;30;20482;-69
2023/11/06 02:15:46;;;;;;;1.03;0.83;;;11.00;99.90;;;11.11;89.77;98666.66;4732373;30;20457;-70
2023/11/06 02:18:16;;;;;;;3.47;1.20;;;11.00;80.00;;;11.11;89.46;98679.38;4734806;30;21021;-68
2023/11/06 02:25:17;;;;;;;1.03;0.60;;;11.00;1.00;;;11.04;88.37;98692.28;4734074;30;20445;-69
2023/11/06 02:27:46;;;;;;;1.10;1.00;;;10.90;1.00;;;11.01;88.85;98687.41;4750283;30;20466;-68
2023/11/06 02:30:15;;;;;;;1.10;0.70;;;10.90;18.60;;;11.00;88.74;98699.31;4735854;30;21048;-70
2023/11/06 02:32:45;;;;;;;1.97;1.20;;;10.90;1.00;;;11.05;88.57;98718.28;4738401;30;20530;-70
2023/11/06 02:35:14;;;;;;;3.00;0.83;;;10.90;1.00;;;11.04;88.28;98709.34;4738553;30;20482;-71
2023/11/06 02:37:43;;;;;;;1.37;0.80;;;10.90;1.00;;;11.04;88.25;98716.66;4737528;30;21000;-69
2023/11/06 02:40:13;;;;;;;1.40;1.07;;;10.90;1.00;;;11.04;87.90;98724.78;4735815;30;20431;-70
2023/11/06 02:42:44;;;;;;;2.50;1.00;;;10.90;1.00;;;11.01;88.01;98718.00;4736540;30;20475;-70
2023/11/06 02:45:13;;;;;;;2.07;0.70;;;10.90;1.00;;;11.13;87.19;98728.66;4737214;30;20463;-69
2023/11/06 02:47:42;;;;;;;3.07;1.10;;;11.00;1.00;;;11.16;86.94;98745.19;4737341;30;20473;-69
2023/11/06 02:50:13;;;;;;;2.00;0.83;;;11.00;1.00;;;11.10;86.84;98738.09;4741379;30;20942;-69
2023/11/06 02:52:42;;;;;;;3.30;0.90;;;11.00;1.00;;;11.06;86.27;98747.00;4751516;30;20473;-70
2023/11/06 02:55:11;;;;;;;3.23;1.33;;;11.00;1.00;;;11.07;87.50;98756.75;4738770;30;20454;-70
2023/11/06 02:57:40;;;;;;;1.03;0.70;;;11.00;1.00;;;11.08;86.46;98755.69;4753669;30;20478;-70
2023/11/06 03:00:13;;;;;;;3.17;0.83;;;11.00;1.00;;;10.98;87.26;98761.00;4738464;30;20451;-69
2023/11/06 03:02:44;;;;;;;1.63;1.53;;;10.90;1.00;;;10.98;86.79;98774.53;4737135;30;20420;-71
2023/11/06 03:05:14;;;;;;;0.90;0.60;;;10.90;1.00;;;11.02;87.09;98768.34;4736803;30;20485;-71
2023/11/06 03:07:44;;;;;;;1.40;0.90;;;10.90;1.00;;;10.88;87.34;98772.53;4738176;30;20848;-71
2023/11/06 03:10:14;;;;;;;2.37;1.13;;;10.80;1.00;;;10.78;88.61;98784.06;4735551;30;20473;-70
2023/11/06 03:12:43;;;;;;;0.93;0.73;;;10.70;1.00;;;10.77;87.83;98782.44;4735285;30;20441;-71
2023/11/06 03:15:14;;;;;;;3.23;0.80;;;10.70;1.00;;;10.75;88.47;98795.38;4749631;30;20445;-70
2023/11/06 03:17:43;;;;;;;0.90;0.60;;;10.70;1.00;;;10.67;88.04;98798.56;4731480;30;20792;-70
2023/11/06 03:20:13;;;;;;;1.60;1.00;;;10.60;1.00;;;10.59;89.27;98798.19;4737015;30;20553;-70
2023/11/06 03:22:41;;;;;;;2.60;1.00;;;10.50;1.00;;;10.43;90.64;98808.00;4736757;30;20972;-70
2023/11/06 03:25:10;;;;;;;1.23;0.77;;;10.40;1.00;;;10.34;90.88;98809.50;4735821;30;20437;-70
2023/11/06 03:27:39;;;;;;;1.13;1.03;;;10.30;1.00;;;10.35;90.55;98817.38;4736555;30;20472;-70
2023/11/06 03:30:10;;;;;;;2.17;1.27;;;10.30;1.00;;;10.22;91.80;98822.31;4736748;30;20446;-71
2023/11/06 03:32:41;;;;;;;1.30;1.15;;;10.20;2.90;;;10.13;92.68;98829.19;4736912;30;20537;-69
2023/11/06 03:35:10;;;;;;;3.03;0.80;;;10.10;85.30;;;10.14;93.50;98842.44;4736191;30;20200;-71
2023/11/06 03:37:39;;;;;;;1.57;1.13;;;10.10;99.90;;;10.08;93.66;98840.75;4739003;30;20451;-69
2023/11/06 03:40:10;;;;;;;1.53;0.70;;;10.10;99.90;;;10.11;92.71;98842.13;4740738;30;20417;-69
2023/11/06 03:42:39;;;;;;;1.00;0.70;;;10.00;99.90;;;10.07;93.51;98841.00;4738727;30;20451;-70
2023/11/06 03:45:09;;;;;;;8.15;1.33;;;10.00;99.90;;;10.08;93.43;98850.72;4738171;30;20264;-69
2023/11/06 03:47:38;;;;;;;1.70;1.57;;;10.00;99.90;;;10.00;93.47;98850.09;4738650;30;20209;-69
2023/11/06 03:50:09;;;;;;;1.00;0.73;;;10.00;99.90;;;9.95;93.42;98850.03;4735426;30;20435;-68
2023/11/06 03:52:38;;;;;;;1.55;0.70;;;9.90;99.90;;;9.93;93.89;98852.13;4736278;30;20942;-70
2023/11/06 03:55:08;;;;;;;0.90;0.60;;;9.90;99.90;;;9.96;93.24;98846.25;4735494;30;20626;-69
2023/11/06 03:57:37;;;;;;;1.77;0.90;;;9.90;99.90;;;9.87;94.10;98853.16;4750551;30;20431;-69
2023/11/06 04:00:09;;;;;;;1.20;0.87;;;9.80;99.90;;;9.91;93.70;98861.56;4736927;30;20962;-70
2023/11/06 04:02:39;;;;;;;0.90;0.60;;;9.90;99.90;;;9.90;93.88;98868.84;4737301;30;20874;-69
2023/11/06 04:05:09;;;;;;;2.80;1.03;;;9.90;99.90;;;9.91;94.08;98875.06;4750602;30;20468;-69
2023/11/06 04:07:38;;;;;;;1.00;0.70;;;9.80;99.90;;;9.88;94.02;98875.56;4736747;30;20474;-70
2023/11/06 04:10:10;;;;;;;2.00;0.85;;;9.80;99.90;;;9.91;93.89;98883.19;4736329;30;20230;-68
2023/11/06 04:12:39;;;;;;;7.27;1.47;;;9.80;99.90;;;9.90;94.29;98903.97;4735977;30;20275;-69
2023/11/06 04:15:10;;;;;;;3.50;1.00;;;9.80;99.90;;;9.86;93.70;98894.72;4736102;30;20447;-69
2023/11/06 04:17:39;;;;;;;1.13;0.63;;;9.80;99.90;;;9.81;93.82;98904.63;4735583;30;20439;-70
2023/11/06 04:20:11;;;;;;;1.00;0.90;;;9.80;99.90;;;9.77;94.04;98898.91;4749751;30;20503;-70
2023/11/06 04:22:40;;;;;;;2.87;0.73;;;9.80;99.90;;;9.71;94.52;98907.16;4736155;30;20443;-69
2023/11/06 04:25:10;;;;;;;3.87;0.77;;;9.70;1.00;;;9.66;95.24;98901.66;4727315;30;20418;-69
2023/11/06 04:27:39;;;;;;;2.27;0.90;;;9.70;1.00;;;9.71;94.89;98905.28;4733925;30;20524;-70
2023/11/06 04:30:09;;;;;;;3.28;1.13;;;9.60;1.00;;;9.66;94.93;98907.06;4735756;30;20475;-69
2023/11/06 04:32:38;;;;;;;2.10;1.20;;;9.60;1.00;;;9.61;95.41;98913.22;4736856;30;20208;-70
2023/11/06 04:35:09;;;;;;;0.87;0.57;;;9.60;1.00;;;9.55;95.55;98927.66;4736642;30;21004;-68
2023/11/06 04:37:39;;;;;;;1.10;0.80;;;9.60;1.00;;;9.45;96.65;98924.78;4735652;30;20494;-70
2023/11/06 04:40:13;;;;;;;1.00;0.70;;;9.50;1.00;;;9.52;96.48;98930.88;4736732;30;20482;-70
2023/11/06 04:42:41;;;;;;;4.03;1.38;;;9.50;1.00;;;9.45;96.22;98927.47;4736358;30;20508;-71
2023/11/06 04:45:11;;;;;;;0.90;0.67;;;9.50;1.00;;;9.46;96.08;98943.44;4736975;30;20738;-71
2023/11/06 04:47:40;;;;;;;3.65;1.20;;;9.40;1.00;;;9.41;96.72;98934.44;4736711;30;20446;-70
2023/11/06 04:50:13;;;;;;;2.47;0.93;;;9.40;1.00;;;9.49;96.23;98942.94;4746772;30;20219;-69
2023/11/06 04:52:42;;;;;;;0.90;0.70;;;9.40;1.00;;;9.45;96.36;98949.09;4747690;30;20214;-70
2023/11/06 04:55:11;;;;;;;0.93;0.70;;;9.40;1.00;;;9.39;96.69;98948.16;4746234;30;20228;-72
2023/11/06 04:57:40;;;;;;;1.55;1.13;;;9.40;1.00;;;9.38;96.74;98953.81;4760508;30;20208;-70
2023/11/06 05:00:11;;;;;;;2.40;1.23;;;9.40;1.00;;;9.44;96.48;98950.97;4742312;30;20220;-69
2023/11/06 05:02:40;;;;;;;2.55;0.88;;;9.40;1.00;;;9.44;97.19;98960.97;4733744;30;20287;-70
2023/11/06 05:05:10;;;;;;;1.92;0.82;;;9.40;21.60;;;9.54;96.75;98959.25;4737742;30;20211;-69
2023/11/06 05:07:40;;;;;;;0.90;0.73;;;9.50;6.90;;;9.65;95.88;98959.44;4751672;30;20204;-70
2023/11/06 05:10:09;;;;;;;1.48;1.00;;;9.50;1.00;;;9.72;95.19;98965.53;4755358;30;20450;-70
2023/11/06 05:12:38;;;;;;;0.80;0.50;;;9.60;1.00;;;9.86;94.76;98970.38;4749357;30;20204;-71
2023/11/06 05:15:09;;;;;;;7.30;1.10;;;9.70;1.00;;;9.98;94.08;98978.38;4738797;30;20257;-69
2023/11/06 05:17:38;;;;;;;1.30;0.70;;;9.80;1.00;;;9.99;93.96;98980.84;4739033;30;20523;-70
2023/11/06 05:20:09;;;;;;;1.50;1.20;;;9.80;1.00;;;10.11;93.81;98988.91;4738484;30;20216;-68
2023/11/06 05:22:40;;;;;;;2.20;1.10;;;9.90;1.00;;;10.19;93.16;98985.81;4746957;30;20215;-71
2023/11/06 05:25:09;;;;;;;1.50;0.73;;;10.00;1.00;;;10.33;91.84;98994.41;4742394;30;20462;-70
2023/11/06 05:27:38;;;;;;;1.10;0.77;;;10.10;99.90;;;10.34;91.04;98990.63;4738445;30;20498;-70
2023/11/06 05:30:10;;;;;;;1.37;0.80;;;10.20;99.90;;;10.45;90.26;98997.84;4737979;30;20751;-69
2023/11/06 05:32:39;;;;;;;1.97;1.03;;;10.30;99.90;;;10.45;90.24;98998.66;4741977;30;20448;-69
2023/11/06 05:35:09;;;;;;;2.70;1.00;;;10.30;99.90;;;10.35;90.55;99008.50;4748664;30;20446;-71
2023/11/06 05:37:39;;;;;;;3.40;0.93;;;10.20;99.90;;;10.50;90.33;99011.44;4746211;30;20459;-69
2023/11/06 05:40:10;;;;;;;1.40;1.07;;;10.30;99.90;;;10.46;90.63;99016.50;4744249;30;20503;-70
2023/11/06 05:42:39;;;;;;;3.50;0.80;;;10.30;99.90;;;10.42;90.58;99011.84;4749226;30;20489;-70
2023/11/06 05:45:09;;;;;;;1.27;0.70;;;10.30;99.90;;;10.42;90.92;99014.53;4752730;30;20427;-69
2023/11/06 05:47:38;;;;;;;1.50;1.00;;;10.30;99.90;;;10.46;90.52;99018.38;4747394;30;20518;-70
2023/11/06 05:50:11;;;;;;;1.30;0.70;;;10.30;99.90;;;10.42;91.00;99023.47;4744117;30;20462;-69
2023/11/06 05:52:41;;;;;;;1.67;1.10;;;10.30;99.90;;;10.53;89.83;99024.47;4756883;30;20466;-69
2023/11/06 05:55:10;;;;;;;1.20;0.70;;;10.40;99.90;;;10.54;90.02;99030.69;4743922;30;20442;-70
2023/11/06 05:57:39;;;;;;;2.47;1.37;;;10.40;99.90;;;10.63;88.92;99029.22;4744596;30;20501;-72
2023/11/06 06:00:15;;;;;;;1.83;0.93;;;10.50;99.90;;;10.62;89.57;99039.22;4742864;30;21009;-72
2023/11/06 06:02:44;;;;;;;4.67;1.70;;;10.50;99.90;;;10.47;89.47;99033.56;4755377;30;20453;-70
2023/11/06 06:05:13;;;;;;;1.00;0.70;;;10.40;58.00;;;10.48;89.46;99037.91;4748704;30;20425;-70
2023/11/06 06:07:44;;;;;;;1.40;0.87;;;10.40;99.90;;;10.56;89.91;99045.59;4751585;30;20800;-69
2023/11/06 06:10:15;;;;;;;2.23;1.33;;;10.50;99.90;;;10.67;89.89;99052.81;4756239;30;20454;-70
2023/11/06 06:12:44;;;;;;;1.93;1.00;;;10.50;99.90;;;10.63;89.21;99056.25;4763465;30;20478;-71
2023/11/06 06:15:13;;;;;;;1.43;1.23;;;10.50;25.10;;;10.70;89.20;99063.13;4749075;30;20866;-70
2023/11/06 06:17:42;;;;;;;1.43;0.70;;;10.60;55.70;;;10.79;87.75;99066.25;4750051;30;20450;-71
2023/11/06 06:20:12;;;;;;;3.20;1.77;;;10.60;1.00;;;10.87;88.13;99073.94;4743734;30;20482;-72
2023/11/06 06:22:43;;;;;;;3.37;0.90;;;10.70;1.00;;;10.88;87.31;99071.00;4738396;30;20454;-70
2023/11/06 06:25:12;;;;;;;2.17;1.08;;;10.70;1.00;;;10.83;87.59;99079.03;4735425;30;20499;-69
2023/11/06 06:27:41;;;;;;;0.90;0.60;;;10.70;1.00;;;10.76;87.78;99078.38;4735680;30;20265;-71
2023/11/06 06:30:14;;;;;;;4.20;1.10;;;10.70;1.00;;;10.82;87.05;99084.69;4749087;30;20473;-70
2023/11/06 06:32:46;;;;;;;1.63;1.13;;;10.70;1.00;;;10.77;88.21;99085.44;4734585;30;20902;-68
2023/11/06 06:35:15;;;;;;;0.80;0.60;;;10.70;1.00;;;10.83;88.27;99087.16;4734539;30;20824;-70
2023/11/06 06:37:45;;;;;;;1.87;0.97;;;10.70;99.90;;;10.88;87.98;99102.66;4732537;30;20528;-69
2023/11/06 06:40:15;;;;;;;2.47;1.10;;;10.70;1.00;;;10.88;87.40;99108.88;4734040;30;20489;-70
2023/11/06 06:42:43;;;;;;;2.50;1.27;;;10.70;1.00;;;10.94;86.79;99112.47;4734043;30;20824;-70
2023/11/06 06:45:25;;;;;;;4.00;2.30;;;10.80;1.00;;;10.88;87.41;99108.88;4734165;30;20453;-68
2023/11/06 06:47:55;;;;;;;1.17;1.07;;;10.70;1.00;;;10.89;87.21;99120.53;4732342;30;20956;-71
2023/11/06 06:50:24;;;;;;;0.90;0.60;;;10.70;1.00;;;10.84;88.02;99123.16;4729148;30;20929;-70
2023/11/06 06:52:54;;;;;;;2.40;1.20;;;10.70;1.00;;;10.88;87.66;99125.13;4747622;30;20449;-70
2023/11/06 06:55:23;;;;;;;2.10;1.47;;;10.80;1.00;;;11.03;86.99;99131.81;4733814;30;20445;-70
2023/11/06 06:57:56;;;;;;;2.40;2.10;;;10.80;1.00;;;11.06;86.97;99142.16;4733955;30;20450;-69
2023/11/06 07:00:25;;;;;;;1.97;1.20;;;10.80;1.00;;;11.19;86.05;99147.22;4733972;30;20470;-69
2023/11/06 07:02:54;;;;;;;2.00;0.60;;;11.00;1.00;;;11.21;86.46;99155.91;4738177;30;20505;-70
2023/11/06 07:05:23;;;;;;;3.13;1.17;;;11.00;1.00;;;11.19;86.85;99155.31;4734887;30;20442;-69
2023/11/06 07:07:53;;;;;;;2.83;0.70;;;11.00;1.00;;;11.15;86.20;99162.31;4732422;30;20458;-69
2023/11/06 07:10:22;;;;;;;1.00;0.70;;;11.00;1.00;;;11.19;86.33;99153.44;4735990;30;20446;-69
2023/11/06 07:12:51;;;;;;;4.80;0.60;;;11.00;1.00;;;11.20;86.21;99165.91;4732233;30;20529;-69
2023/11/06 07:15:20;;;;;;;1.10;0.60;;;11.00;1.00;;;11.27;86.18;99173.88;4737245;30;20509;-69
2023/11/06 07:17:49;;;;;;;1.10;0.70;;;11.10;1.00;;;11.41;86.43;99161.63;4736633;30;20435;-70
2023/11/06 07:21:09;;;;;;;3.10;2.40;;;11.20;1.00;;;11.47;85.71;99176.91;4750088;30;20515;-72
2023/11/06 07:23:39;;;;;;;2.53;0.77;;;11.20;1.00;;;11.44;85.79;99182.78;4734625;30;20469;-69
2023/11/06 07:26:08;;;;;;;0.97;0.60;;;11.30;1.00;;;11.48;85.28;99183.94;4754114;30;20466;-69
2023/11/06 07:28:37;;;;;;;1.93;0.80;;;11.30;1.00;;;11.52;85.68;99185.06;4740923;30;20428;-68
2023/11/06 07:31:06;;;;;;;1.07;0.67;;;11.40;1.00;;;11.55;84.83;99191.88;4741418;30;20634;-70
2023/11/06 07:33:35;;;;;;;1.10;1.00;;;11.40;1.00;;;11.54;84.95;99193.78;4742368;30;20448;-69
2023/11/06 07:36:06;;;;;;;1.30;1.00;;;11.40;1.00;;;11.55;85.47;99195.41;4740055;30;20454;-69
2023/11/06 07:38:35;;;;;;;2.30;1.30;;;11.40;1.00;;;11.75;84.14;99209.28;4733398;30;20805;-68
2023/11/06 07:41:11;;;;;;;1.40;0.83;;;11.50;1.00;;;11.80;83.72;99202.28;4736421;30;20557;-69
2023/11/06 07:43:40;;;;;;;3.30;1.37;;;11.60;1.00;;;11.80;83.87;99199.56;4733547;30;20477;-69
2023/11/06 07:46:09;;;;;;;1.30;1.10;;;11.60;1.00;;;11.77;83.51;99209.84;4736088;30;20462;-68
2023/11/06 07:48:38;;;;;;;1.00;0.60;;;11.60;1.00;;;11.79;83.56;99214.19;4736140;30;20838;-70
2023/11/06 07:51:07;;;;;;;2.00;1.07;;;11.60;1.00;;;11.70;83.93;99211.88;4736571;30;20409;-69
2023/11/06 07:53:37;;;;;;;10.43;1.17;;;11.60;1.00;;;11.66;84.11;99224.31;4736670;30;20470;-70
2023/11/06 07:56:09;;;;;;;1.40;1.00;;;11.60;1.00;;;11.63;84.78;99213.94;4736545;30;20504;-70
2023/11/06 07:58:38;;;;;;;1.10;0.70;;;11.60;1.00;;;11.59;85.17;99228.22;4733815;30;20450;-70
2023/11/06 08:01:07;;;;;;;1.77;1.10;;;11.50;1.00;;;11.62;84.85;99222.31;4749107;30;20453;-69
2023/11/06 08:03:36;;;;;;;1.00;0.70;;;11.50;1.00;;;11.73;85.02;99229.56;4733785;30;20476;-69
2023/11/06 08:06:07;;;;;;;2.20;1.10;;;11.50;1.00;;;11.79;84.92;99230.44;4735875;30;20452;-69
2023/11/06 08:08:37;;;;;;;0.80;0.50;;;11.60;1.00;;;11.80;83.88;99232.91;4734651;30;20508;-69
2023/11/06 08:11:08;;;;;;;1.30;0.67;;;11.60;1.00;;;11.84;83.45;99249.50;4735865;30;20474;-70
2023/11/06 08:13:38;;;;;;;2.77;1.30;;;11.70;1.00;;;11.80;83.80;99246.47;4736309;30;20449;-69
2023/11/06 08:16:09;;;;;;;1.33;0.80;;;11.60;1.00;;;11.88;84.06;99242.50;4735632;30;20459;-68
2023/11/06 08:18:38;;;;;;;1.10;0.60;;;11.70;1.00;;;11.85;82.71;99249.25;4735644;30;20439;-69
2023/11/06 08:21:10;;;;;;;0.87;0.63;;;11.70;1.00;;;11.82;83.90;99254.31;4735270;30;20573;-68
2023/11/06 08:23:39;;;;;;;1.20;0.80;;;11.70;1.00;;;11.93;84.61;99258.81;4736021;30;20491;-70
2023/11/06 08:26:10;;;;;;;1.40;0.60;;;11.80;1.00;;;12.04;83.66;99257.91;4735375;30;20449;-70
2023/11/06 08:28:40;;;;;;;1.00;0.60;;;11.90;1.00;;;12.10;82.63;99268.53;4735982;30;20936;-69
2023/11/06 08:31:10;;;;;;;1.03;0.60;;;11.90;1.00;;;12.02;82.67;99276.28;4735512;30;20803;-68
2023/11/06 08:33:39;;;;;;;3.33;0.60;;;11.90;1.00;;;12.25;81.78;99267.91;4748003;30;20584;-68
2023/11/06 08:36:13;;;;;;;1.73;0.90;;;12.00;1.00;;;12.33;81.61;99278.34;4734836;30;20463;-68
2023/11/06 08:38:42;;;;;;;1.27;0.70;;;12.10;1.00;;;12.43;80.94;99280.34;4734576;30;20435;-69
2023/11/06 08:41:12;;;;;;;1.30;0.50;;;12.20;1.00;;;12.55;80.76;99286.47;4734416;30;20482;-67
2023/11/06 08:43:41;;;;;;;1.10;0.80;;;12.30;1.00;;;12.62;80.62;99285.19;4747796;30;21061;-66
2023/11/06 08:46:11;;;;;;;1.20;0.57;;;12.40;1.00;;;12.91;79.90;99302.06;4734281;30;20680;-69
2023/11/06 08:48:42;;;;;;;0.90;0.53;;;12.50;1.00;;;13.00;78.77;99299.72;4734507;30;20424;-67
2023/11/06 08:51:12;;;;;;;8.43;1.07;;;12.60;1.00;;;12.99;79.52;99308.94;4734816;30;20422;-67
2023/11/06 08:53:40;;;;;;;0.90;0.60;;;12.70;1.00;;;12.80;79.69;99313.06;4734237;30;20455;-67
2023/11/06 08:56:10;;;;;;;4.73;0.80;;;12.60;1.00;;;12.87;78.62;99327.28;4734620;30;20421;-66
2023/11/06 08:58:41;;;;;;;2.93;1.73;;;12.70;1.00;;;12.91;78.83;99323.78;4734700;30;20405;-66
2023/11/06 09:01:10;;;;;;;1.77;0.80;;;12.70;1.00;;;12.90;78.67;99332.19;4734554;30;20517;-66
2023/11/06 09:03:40;;;;;;;1.47;0.80;;;12.70;1.00;;;13.02;78.08;99333.66;4734554;30;20433;-68
2023/11/06 09:06:10;;;;;;;2.40;0.70;;;12.80;1.00;;;12.91;78.37;99334.66;4734662;30;20442;-67
2023/11/06 09:08:39;;;;;;;1.43;0.60;;;12.80;1.00;;;12.92;79.41;99338.19;4734419;30;20512;-67
2023/11/06 09:11:08;;;;;;;1.60;1.00;;;12.70;1.00;;;12.98;78.62;99346.13;4733337;30;20446;-66
2023/11/06 09:13:37;;;;;;;2.70;0.90;;;12.80;1.00;;;12.99;79.11;99352.38;4734792;30;20441;-66
2023/11/06 09:16:09;;;;;;;1.27;0.67;;;12.70;1.00;;;12.84;79.43;99342.16;4734262;30;20868;-66
2023/11/06 09:18:39;;;;;;;1.10;0.60;;;12.70;1.00;;;12.69;80.02;99355.53;4730608;30;20958;-66
2023/11/06 09:21:13;;;;;;;1.30;0.80;;;12.50;1.00;;;12.53;80.75;99360.00;4733255;30;20457;-67
2023/11/06 09:23:45;;;;;;;1.23;0.60;;;12.40;1.00;;;12.61;80.78;99375.00;4734415;30;20524;-68
2023/11/06 09:26:14;;;;;;;1.50;0.83;;;12.40;99.90;;;12.74;80.91;99381.94;4733981;30;21012;-66
2023/11/06 09:28:43;;;;;;;0.90;0.60;;;12.50;1.00;;;12.46;81.07;99381.03;4733986;30;20449;-68
2023/11/06 09:31:20;;;;;;;1.87;1.43;;;12.40;1.00;;;12.75;80.97;99384.41;4734963;30;20511;-67
2023/11/06 09:33:51;;;;;;;1.63;0.70;;;12.50;1.00;;;12.89;79.57;99391.09;4733724;30;20974;-66
2023/11/06 09:36:21;;;;;;;2.80;0.80;;;12.60;1.00;;;13.02;79.33;99392.59;4734479;30;20513;-68
2023/11/06 09:38:50;;;;;;;1.17;0.70;;;12.70;1.00;;;13.04;78.19;99404.00;4733575;30;20417;-67
2023/11/06 09:41:19;;;;;;;2.60;0.70;;;12.80;1.00;;;13.01;78.94;99405.34;4734075;30;20970;-67
2023/11/06 09:43:51;;;;;;;1.10;0.90;;;12.70;1.00;;;12.87;79.83;99398.69;4733965;30;20796;-67
2023/11/06 09:46:23;;;;;;;2.47;1.13;;;12.70;99.90;;;12.97;79.63;99408.84;4734027;30;21033;-67
2023/11/06 09:48:55;;;;;;;1.10;0.60;;;12.70;1.00;;;12.92;78.97;99414.22;4732728;30;20947;-67
2023/11/06 09:51:31;;;;;;;2.30;1.07;;;12.70;1.00;;;13.21;78.66;99421.09;4734610;30;20943;-67
2023/11/06 09:54:05;;;;;;;4.37;1.07;;;12.90;1.00;;;13.20;78.38;99419.44;4734366;30;20494;-68
2023/11/06 09:56:34;;;;;;;1.77;1.03;;;12.90;1.00;;;13.27;76.87;99425.47;4731385;30;20417;-66
2023/11/06 09:59:05;;;;;;;1.30;0.73;;;13.00;1.00;;;13.30;76.93;99422.28;4735992;30;20429;-66
2023/11/06 10:01:37;;;;;;;4.40;2.60;;;13.00;99.90;;;13.43;76.77;99416.44;4736897;30;20453;-67
2023/11/06 10:04:08;;;;;;;2.40;1.10;;;13.10;1.00;;;13.39;76.78;99423.47;4734525;30;20506;-67
2023/11/06 10:06:37;;;;;;;1.70;1.23;;;13.10;1.00;;;13.68;76.56;99428.63;4735424;30;20953;-67
2023/11/06 10:09:23;;;;;;;1.73;0.60;;;13.30;99.90;;;13.84;75.08;99425.81;4734140;30;20522;-66
2023/11/06 10:11:57;;;;;;;1.40;1.00;;;13.40;99.90;;;14.02;74.44;99432.72;4733904;30;20470;-67
2023/11/06 10:14:38;;;;;;;3.33;1.13;;;13.60;1.00;;;13.90;73.31;99442.94;4727179;30;20462;-67
2023/11/06 10:17:09;;;;;;;1.63;1.07;;;13.60;1.00;;;14.00;73.11;99432.16;4734289;30;20442;-65
2023/11/06 10:19:38;;;;;;;1.10;0.73;;;13.70;99.90;;;14.21;71.81;99438.59;4747231;30;20486;-67
2023/11/06 10:22:14;;;;;;;2.23;1.50;;;13.80;99.90;;;14.36;71.47;99452.34;4731604;30;20479;-66
2023/11/06 10:24:51;;;;;;;1.63;0.90;;;14.00;1.00;;;13.64;70.85;99458.22;4732834;30;20489;-67
2023/11/06 10:27:27;;;;;;;1.47;0.83;;;;;;;13.41;72.53;99453.06;4732006;30;20449;-67
2023/11/06 10:30:00;;;;;;;1.00;0.83;;;13.40;1.00;;;13.52;73.45;99462.16;4733488;30;20474;-67
2023/11/06 10:33:13;;;;;;;6.13;1.10;;;13.30;1.00;;;13.52;72.79;99465.69;4733386;30;20502;-67
2023/11/06 10:35:43;;;;;;;1.10;0.80;;;13.40;99.90;;;13.53;72.47;99471.97;4730967;30;20435;-65
2023/11/06 10:38:35;;;;;;;1.93;1.13;;;13.30;1.00;;;13.35;73.07;99475.84;4733197;30;20520;-67
2023/11/06 10:41:24;;;;;;;2.60;1.07;;;13.20;9.20;;;13.51;72.43;99474.13;4727441;30;20942;-67
2023/11/06 10:44:00;;;;;;;1.53;0.70;;;13.30;32.70;;;13.48;72.51;99480.88;4733825;30;20482;-67